Time;durP1;ratioP1;P1;durP2;ratioP2;P2;SDS_P1;SDS_P2;PMS_P1;PMS_P2;Temp;Humidity;BMP_temperature;BMP_pressure;BME280_temperature;BME280_humidity;BME280_pressure;Samples;Min_cycle;Max_cycle;Signal;HPM_P1;HPM_P2
2023/04/05 00:00:16;;;;;;;15.10;9.10;;;;;;;0.43;100.00;102523.66;10222971;28;20136;-74
2023/04/05 00:05:12;;;;;;;16.92;8.77;;;;;;;0.37;100.00;102524.47;10223964;28;20497;-74
2023/04/05 00:10:09;;;;;;;17.00;8.80;;;;;;;0.23;100.00;102522.78;10223575;28;20095;-74
2023/04/05 00:15:06;;;;;;;16.60;8.52;;;;;;;0.18;100.00;102516.16;10215858;28;20060;-75
2023/04/05 00:20:06;;;;;;;12.35;7.97;;;;;;;0.15;100.00;102523.81;10211443;28;20100;-73
2023/04/05 00:25:04;;;;;;;13.55;8.18;;;;;;;0.09;100.00;102522.75;10225209;28;20471;-74
2023/04/05 00:30:00;;;;;;;14.98;8.98;;;;;;;0.09;100.00;102522.75;10223223;28;20045;-77
2023/04/05 00:34:57;;;;;;;19.23;8.70;;;;;;;0.03;100.00;102518.19;10220383;28;20451;-77
2023/04/05 00:39:54;;;;;;;13.25;8.48;;;;;;;-0.03;100.00;102522.50;10217309;28;20045;-77
2023/04/05 00:44:50;;;;;;;15.43;8.88;;;;;;;-0.11;100.00;102525.41;10222148;28;20051;-77
2023/04/05 00:49:46;;;;;;;16.33;8.57;;;;;;;-0.17;100.00;102514.63;10225741;28;20274;-72
2023/04/05 00:54:43;;;;;;;15.48;8.65;;;;;;;-0.20;100.00;102506.97;10225804;28;20214;-75
2023/04/05 00:59:40;;;;;;;14.70;9.07;;;;;;;-0.20;100.00;102513.16;10217318;28;20063;-74
2023/04/05 01:04:40;;;;;;;13.32;8.68;;;;;;;-0.25;100.00;102499.50;10213885;28;20103;-75
2023/04/05 01:09:57;;;;;;;14.38;9.27;;;;;;;-0.29;100.00;102504.44;10229945;28;20430;-75
2023/04/05 01:14:54;;;;;;;14.52;9.45;;;;;;;-0.34;100.00;102506.91;10230099;28;20061;-77
2023/04/05 01:19:57;;;;;;;14.88;9.35;;;;;;;-0.38;100.00;102500.28;10224078;28;20046;-77
2023/04/05 01:25:09;;;;;;;23.95;9.63;;;;;;;-0.40;100.00;102499.63;10227624;28;20050;-77
2023/04/05 01:30:17;;;;;;;16.88;10.38;;;;;;;-0.48;100.00;102494.47;10222107;28;20514;-77
2023/04/05 01:35:31;;;;;;;14.75;9.05;;;;;;;-0.50;100.00;102480.38;10223275;28;20049;-72
2023/04/05 01:40:30;;;;;;;16.05;9.45;;;;;;;-0.52;100.00;102479.75;10229628;28;20055;-77
2023/04/05 01:45:28;;;;;;;15.45;8.90;;;;;;;-0.60;100.00;102471.84;10224696;28;20046;-77
2023/04/05 01:50:24;;;;;;;16.95;10.18;;;;;;;-0.61;100.00;102467.53;10233273;28;20057;-77
2023/04/05 01:55:21;;;;;;;16.50;9.23;;;;;;;-0.61;100.00;102468.34;10223863;28;20081;-76
2023/04/05 02:00:17;;;;;;;16.92;9.90;;;;;;;-0.60;100.00;102466.47;10223282;28;20045;-78
2023/04/05 02:05:14;;;;;;;14.10;10.00;;;;;;;-0.67;100.00;102461.94;10225925;28;20498;-78
2023/04/05 02:10:11;;;;;;;17.63;10.23;;;;;;;-0.71;100.00;102452.59;10217108;28;20140;-77
2023/04/05 02:15:08;;;;;;;19.63;10.75;;;;;;;-0.74;100.00;102461.06;10229801;28;20041;-71
2023/04/05 02:20:09;;;;;;;14.70;9.93;;;;;;;-0.80;100.00;102453.81;10221474;28;20060;-77
2023/04/05 02:25:09;;;;;;;16.02;10.35;;;;;;;-0.82;100.00;102457.72;10226032;28;20063;-77
2023/04/05 02:30:06;;;;;;;14.98;9.38;;;;;;;-0.82;100.00;102455.84;10228028;28;20046;-77
2023/04/05 02:35:03;;;;;;;15.98;10.40;;;;;;;-0.89;100.00;102452.31;10217696;28;20451;-75
2023/04/05 02:40:00;;;;;;;17.17;10.40;;;;;;;-0.90;100.00;102450.66;10226845;28;20411;-76
2023/04/05 02:44:57;;;;;;;21.77;10.88;;;;;;;-0.92;100.00;102450.03;10224273;28;20046;-76
2023/04/05 02:49:53;;;;;;;19.20;10.90;;;;;;;-0.93;100.00;102448.34;10230027;28;20743;-76
2023/04/05 02:54:50;;;;;;;21.90;10.75;;;;;;;-0.96;100.00;102446.06;10225641;28;20034;-78
2023/04/05 02:59:46;;;;;;;15.85;9.45;;;;;;;-0.98;100.00;102445.44;10214424;28;20068;-77
2023/04/05 03:04:45;;;;;;;22.23;10.00;;;;;;;-1.03;100.00;102451.41;10218709;28;20049;-79
2023/04/05 03:09:43;;;;;;;16.77;10.20;;;;;;;-1.03;100.00;102442.53;10225885;28;20487;-78
2023/04/05 03:14:40;;;;;;;16.40;9.75;;;;;;;-1.10;100.00;102443.31;10217249;28;20103;-75
2023/04/05 03:19:37;;;;;;;15.35;10.18;;;;;;;-1.10;100.00;102437.94;10221105;28;20041;-75
2023/04/05 03:24:34;;;;;;;14.20;9.48;;;;;;;-1.12;100.00;102434.63;10220926;28;20042;-77
2023/04/05 03:29:31;;;;;;;18.10;10.45;;;;;;;-1.15;100.00;102426.97;10220586;28;20075;-71
2023/04/05 03:34:27;;;;;;;16.55;9.10;;;;;;;-1.15;100.00;102429.66;10224381;28;20038;-72
2023/04/05 03:39:24;;;;;;;16.63;10.18;;;;;;;-1.16;100.00;102430.69;10212365;28;20048;-72
2023/04/05 03:44:20;;;;;;;13.35;9.48;;;;;;;-1.21;100.00;102427.75;10205950;28;20045;-72
2023/04/05 03:49:18;;;;;;;14.55;9.68;;;;;;;-1.24;100.00;102425.47;10226509;28;20042;-72
2023/04/05 03:54:15;;;;;;;16.30;9.73;;;;;;;-1.28;100.00;102434.94;10219174;28;20043;-73
2023/04/05 03:59:12;;;;;;;16.90;9.90;;;;;;;-1.26;100.00;102427.53;10208642;28;20392;-72
2023/04/05 04:04:08;;;;;;;16.23;10.27;;;;;;;-1.28;100.00;102430.41;10224954;28;20042;-73
2023/04/05 04:09:05;;;;;;;17.00;11.07;;;;;;;-1.29;100.00;102433.28;10218258;28;20049;-72
2023/04/05 04:14:02;;;;;;;16.00;9.57;;;;;;;-1.30;100.00;102415.50;10212615;28;20046;-72
2023/04/05 04:18:58;;;;;;;20.52;10.55;;;;;;;-1.30;100.00;102420.88;10213364;28;20491;-73
2023/04/05 04:23:56;;;;;;;13.90;9.73;;;;;;;-1.31;100.00;102413.88;10217146;28;20049;-73
2023/04/05 04:28:54;;;;;;;15.73;9.45;;;;;;;-1.30;100.00;102418.19;10200559;28;20049;-73
2023/04/05 04:33:50;;;;;;;12.75;8.90;;;;;;;-1.28;100.00;102416.16;10212409;28;20072;-72
2023/04/05 04:38:47;;;;;;;12.85;9.18;;;;;;;-1.28;100.00;102408.94;10211465;28;20075;-73
2023/04/05 04:43:43;;;;;;;13.55;9.27;;;;;;;-1.25;100.00;102417.59;10202771;28;20042;-73
2023/04/05 04:48:42;;;;;;;14.52;8.82;;;;;;;-1.22;100.00;102415.38;10216538;28;20057;-72
2023/04/05 04:53:39;;;;;;;13.73;9.95;;;;;;;-1.17;100.00;102410.22;10211517;28;20065;-72
2023/04/05 04:58:35;;;;;;;12.63;9.25;;;;;;;-1.09;100.00;102411.91;10210157;28;20052;-72
2023/04/05 05:03:34;;;;;;;13.52;9.85;;;;;;;-0.97;100.00;102409.53;10206847;28;20056;-72
2023/04/05 05:08:30;;;;;;;14.13;9.57;;;;;;;-0.90;100.00;102413.88;10212801;28;20041;-72
2023/04/05 05:13:27;;;;;;;15.13;10.13;;;;;;;-0.81;100.00;102419.06;10207884;28;20042;-72
2023/04/05 05:18:23;;;;;;;17.30;11.32;;;;;;;-0.67;100.00;102410.88;10216902;28;20049;-72
2023/04/05 05:23:20;;;;;;;15.63;10.20;;;;;;;-0.59;100.00;102417.94;10208573;28;20046;-72
2023/04/05 05:28:16;;;;;;;16.15;10.25;;;;;;;-0.39;100.00;102412.63;10211755;28;20740;-72
2023/04/05 05:33:13;;;;;;;14.20;10.27;;;;;;;-0.28;100.00;102411.19;10208255;28;20053;-72
2023/04/05 05:38:09;;;;;;;14.68;10.15;;;;;;;0.01;100.00;102404.63;10217794;28;20061;-72
2023/04/05 05:43:09;;;;;;;18.15;11.52;;;;;;;0.13;100.00;102411.03;10211004;28;20415;-72
2023/04/05 05:48:06;;;;;;;17.80;11.32;;;;;;;0.29;100.00;102398.22;10208113;28;20395;-72
2023/04/05 05:53:02;;;;;;;16.13;10.45;;;;;;;0.34;100.00;102390.34;10221076;28;20047;-72
2023/04/05 05:57:59;;;;;;;18.10;10.32;;;;;;;0.34;100.00;102384.94;10211171;28;20045;-72
2023/04/05 06:02:57;;;;;;;13.43;9.60;;;;;;;0.52;100.00;102369.00;10218983;28;20050;-73
2023/04/05 06:07:54;;;;;;;12.73;9.90;;;;;;;0.63;100.00;102367.53;10219720;28;20467;-72
2023/04/05 06:12:51;;;;;;;27.23;10.40;;;;;;;0.65;100.00;102367.28;10227925;28;20041;-72
2023/04/05 06:17:48;;;;;;;19.65;10.43;;;;;;;0.70;100.00;102378.28;10228823;28;20056;-72
2023/04/05 06:22:44;;;;;;;17.77;10.30;;;;;;;0.73;100.00;102373.28;10213984;28;20081;-72
2023/04/05 06:27:41;;;;;;;14.50;11.13;;;;;;;0.73;100.00;102377.84;10221326;28;20515;-72
2023/04/05 06:32:37;;;;;;;14.63;10.00;;;;;;;0.86;100.00;102383.22;10227126;28;20511;-72
2023/04/05 06:37:34;;;;;;;15.20;9.95;;;;;;;0.91;100.00;102383.41;10202128;28;20064;-72
2023/04/05 06:42:30;;;;;;;13.27;10.63;;;;;;;0.91;100.00;102390.66;10224255;28;20705;-72
2023/04/05 06:47:27;;;;;;;40.33;14.93;;;;;;;1.05;100.00;102386.88;10213001;28;20049;-72
2023/04/05 06:52:23;;;;;;;21.65;12.85;;;;;;;1.25;100.00;102389.47;10226413;28;20059;-72
2023/04/05 06:57:20;;;;;;;20.58;11.90;;;;;;;1.57;100.00;102389.50;10218366;28;20640;-72
2023/04/05 07:02:16;;;;;;;27.40;12.38;;;;;;;1.71;100.00;102385.69;10221685;28;20132;-72
2023/04/05 07:07:13;;;;;;;20.20;10.50;;;;;;;1.76;100.00;102388.53;10217695;28;20046;-72
2023/04/05 07:12:09;;;;;;;18.95;12.30;;;;;;;1.62;100.00;102393.19;10220204;28;20038;-72
2023/04/05 07:17:06;;;;;;;20.15;11.43;;;;;;;1.65;100.00;102397.34;10220180;28;20513;-72
2023/04/05 07:22:02;;;;;;;19.77;11.55;;;;;;;1.65;100.00;102400.06;10229593;28;20129;-72
2023/04/05 07:26:59;;;;;;;24.60;11.95;;;;;;;1.77;100.00;102390.22;10219993;28;20133;-72
2023/04/05 07:31:55;;;;;;;17.63;10.57;;;;;;;1.71;100.00;102385.69;10212197;28;20049;-73
2023/04/05 07:36:52;;;;;;;16.20;10.73;;;;;;;1.79;100.00;102381.91;10213739;28;20045;-73
2023/04/05 07:41:48;;;;;;;16.65;10.23;;;;;;;1.82;100.00;102387.69;10222281;28;20080;-72
2023/04/05 07:46:45;;;;;;;21.95;10.95;;;;;;;1.94;100.00;102378.91;10213731;28;20057;-73
2023/04/05 07:51:45;;;;;;;18.63;10.80;;;;;;;2.13;100.00;102372.50;10210785;28;20096;-73
2023/04/05 07:56:42;;;;;;;17.73;9.82;;;;;;;2.34;100.00;102378.56;10205080;28;20459;-73
2023/04/05 08:01:39;;;;;;;17.77;9.90;;;;;;;2.54;100.00;102368.41;10211810;28;20049;-73
2023/04/05 08:06:35;;;;;;;15.82;10.65;;;;;;;2.80;100.00;102361.06;10213800;28;20120;-73
2023/04/05 08:11:32;;;;;;;17.77;10.77;;;;;;;3.05;100.00;102359.09;10216112;28;20406;-73
2023/04/05 08:16:29;;;;;;;15.98;9.20;;;;;;;3.27;100.00;102358.59;10208071;28;20048;-73
2023/04/05 08:21:26;;;;;;;15.13;10.00;;;;;;;3.46;100.00;102344.00;10220615;28;20593;-73
2023/04/05 08:26:22;;;;;;;14.82;10.13;;;;;;;3.73;100.00;102349.00;10206727;28;20051;-73
2023/04/05 08:31:19;;;;;;;15.82;9.00;;;;;;;3.99;100.00;102343.16;10203937;28;20097;-73
2023/04/05 08:36:16;;;;;;;12.25;9.52;;;;;;;4.21;100.00;102337.16;10210264;28;20052;-73
2023/04/05 08:41:15;;;;;;;20.00;9.35;;;;;;;4.46;100.00;102336.94;10207935;28;20121;-73
2023/04/05 08:46:16;;;;;;;16.90;9.27;;;;;;;4.72;100.00;102332.88;10203921;28;20049;-73
2023/04/05 08:51:16;;;;;;;14.95;8.95;;;;;;;4.90;100.00;102331.06;10225231;28;20042;-73
2023/04/05 08:56:24;;;;;;;12.05;8.52;;;;;;;5.06;100.00;102316.78;10213510;28;20052;-73
2023/04/05 09:01:21;;;;;;;9.75;7.05;;;;;;;5.25;100.00;102322.81;10210994;28;20045;-73
2023/04/05 09:06:19;;;;;;;7.75;6.78;;;;;;;5.44;100.00;102321.53;10209270;28;20045;-73
2023/04/05 09:11:17;;;;;;;7.90;7.10;;;;;;;5.59;100.00;102323.72;10203819;28;20133;-72
2023/04/05 09:16:15;;;;;;;11.07;7.28;;;;;;;5.64;100.00;102331.94;10216504;28;20494;-72
2023/04/05 09:21:12;;;;;;;9.88;7.53;;;;;;;5.96;100.00;102323.25;10218765;28;20108;-72
2023/04/05 09:26:19;;;;;;;8.48;7.20;;;;;;;5.88;100.00;102326.34;10215098;28;20480;-73
2023/04/05 09:31:29;;;;;;;10.13;7.07;;;;;;;6.15;100.00;102315.69;10238633;28;20050;-73
2023/04/05 09:36:27;;;;;;;11.18;7.38;;;;;;;6.26;100.00;102311.19;10216992;28;20037;-73
2023/04/05 09:41:23;;;;;;;8.95;7.82;;;;;;;6.35;100.00;102317.84;10222463;28;20049;-72
2023/04/05 09:46:30;;;;;;;7.40;6.63;;;;;;;6.62;100.00;102306.28;10214987;28;20041;-71
2023/04/05 09:51:35;;;;;;;6.78;6.10;;;;;;;6.62;100.00;102303.56;10231076;28;20060;-72
2023/04/05 09:56:34;;;;;;;8.82;7.15;;;;;;;7.57;100.00;102295.88;10209013;28;20515;-72
2023/04/05 10:01:31;;;;;;;10.38;6.68;;;;;;;7.64;100.00;102304.63;10208421;28;20084;-72
2023/04/05 10:06:36;;;;;;;7.93;6.55;;;;;;;8.26;100.00;102289.53;10219375;28;20415;-73
2023/04/05 10:11:35;;;;;;;13.30;7.80;;;;;;;8.29;100.00;102283.59;10216411;28;20053;-72
2023/04/05 10:16:36;;;;;;;9.38;7.60;;;;;;;7.81;100.00;102282.72;10218939;28;20045;-73
2023/04/05 10:21:39;;;;;;;8.63;7.05;;;;;;;8.78;100.00;102277.84;10208191;28;20042;-72
2023/04/05 10:26:46;;;;;;;9.25;8.30;;;;;;;8.84;92.74;102274.03;10221384;28;20542;-72
2023/04/05 10:31:50;;;;;;;8.43;7.68;;;;;;;9.90;80.61;102266.19;10217693;28;20056;-72
2023/04/05 10:36:57;;;;;;;8.57;7.45;;;;;;;12.30;65.58;102246.66;10217632;28;20045;-73
2023/04/05 10:41:59;;;;;;;9.68;7.50;;;;;;;11.67;65.43;102254.94;10211793;28;20041;-73
2023/04/05 10:46:57;;;;;;;7.95;7.15;;;;;;;9.89;78.39;102250.91;10211237;28;20049;-72
2023/04/05 10:51:54;;;;;;;8.73;7.50;;;;;;;9.82;81.12;102244.09;10223754;28;20422;-73
2023/04/05 10:56:52;;;;;;;9.40;7.47;;;;;;;8.95;87.08;102247.59;10213457;28;20129;-73
2023/04/05 11:01:49;;;;;;;10.93;7.38;;;;;;;8.50;98.58;102251.81;10208053;28;20511;-73
2023/04/05 11:06:46;;;;;;;11.85;7.25;;;;;;;7.84;100.00;102232.34;10213408;28;20499;-73
2023/04/05 11:11:45;;;;;;;7.90;6.05;;;;;;;8.01;99.41;102227.56;10226844;28;20451;-73
2023/04/05 11:16:46;;;;;;;7.25;6.10;;;;;;;7.97;100.00;102221.00;10220873;28;20559;-73
2023/04/05 11:21:45;;;;;;;8.23;6.97;;;;;;;7.90;100.00;102217.69;10216687;28;20062;-73
2023/04/05 11:26:42;;;;;;;10.38;6.78;;;;;;;7.64;100.00;102217.53;10208647;28;20510;-73
2023/04/05 11:32:00;;;;;;;8.57;6.47;;;;;;;7.69;100.00;102214.84;10213549;28;20499;-73
2023/04/05 11:36:57;;;;;;;10.57;6.65;;;;;;;7.64;100.00;102212.09;10206486;28;20069;-73
2023/04/05 11:42:11;;;;;;;11.85;6.25;;;;;;;7.88;100.00;102201.59;10198833;28;20064;-73
2023/04/05 11:47:10;;;;;;;10.48;6.78;;;;;;;8.14;96.21;102199.84;10211064;28;20041;-73
2023/04/05 11:52:18;;;;;;;8.52;6.75;;;;;;;10.17;83.46;102191.28;10222202;28;20045;-73
2023/04/05 11:57:21;;;;;;;6.90;6.20;;;;;;;10.68;80.10;102182.03;10217216;28;20045;-73
2023/04/05 12:02:18;;;;;;;7.60;6.82;;;;;;;10.77;79.16;102179.50;10217967;28;20107;-73
2023/04/05 12:07:16;;;;;;;8.57;6.53;;;;;;;10.47;72.39;102173.13;10214935;28;20046;-73
2023/04/05 12:12:16;;;;;;;10.45;6.05;;;;;;;9.67;75.77;102171.19;10221417;28;20064;-73
2023/04/05 12:17:12;;;;;;;10.15;5.80;;;;;;;8.82;80.79;102171.75;10204091;28;20052;-73
2023/04/05 12:22:09;;;;;;;6.15;5.55;;;;;;;9.10;83.99;102161.41;10217510;28;20046;-73
2023/04/05 12:27:05;;;;;;;6.68;5.90;;;;;;;9.13;83.94;102160.88;10210500;28;20046;-73
2023/04/05 12:32:03;;;;;;;6.82;5.78;;;;;;;8.70;80.77;102146.63;10209937;28;20064;-73
2023/04/05 12:37:01;;;;;;;8.23;6.10;;;;;;;8.52;82.14;102156.97;10214434;28;20045;-73
2023/04/05 12:41:59;;;;;;;8.13;6.68;;;;;;;8.57;86.07;102153.44;10201641;28;20048;-73
2023/04/05 12:47:08;;;;;;;7.57;5.95;;;;;;;8.57;84.36;102137.91;10206332;28;20050;-73
2023/04/05 12:52:04;;;;;;;7.32;6.45;;;;;;;8.59;91.65;102135.72;10216073;28;20060;-73
2023/04/05 12:57:03;;;;;;;6.20;5.70;;;;;;;8.79;92.44;102124.00;10216061;28;20062;-73
2023/04/05 13:01:59;;;;;;;7.93;6.50;;;;;;;9.22;87.30;102116.38;10222863;28;20079;-73
2023/04/05 13:06:56;;;;;;;7.25;6.55;;;;;;;9.87;88.42;102110.22;10221250;28;20045;-73
2023/04/05 13:11:52;;;;;;;10.80;7.18;;;;;;;9.88;86.71;102107.19;10221026;28;20081;-73
2023/04/05 13:16:49;;;;;;;9.57;6.88;;;;;;;9.78;85.16;102107.25;10223491;28;20659;-73
2023/04/05 13:21:45;;;;;;;8.18;6.47;;;;;;;10.00;88.93;102103.34;10235405;28;20053;-73
2023/04/05 13:26:42;;;;;;;11.38;7.53;;;;;;;9.78;93.56;102101.78;10218839;28;20053;-73
2023/04/05 13:31:39;;;;;;;7.88;7.00;;;;;;;9.96;89.81;102097.63;10218134;28;20048;-73
2023/04/05 13:36:36;;;;;;;10.45;7.15;;;;;;;11.12;88.56;102097.16;10210884;28;20095;-73
2023/04/05 13:41:32;;;;;;;9.98;7.05;;;;;;;10.97;77.17;102088.25;10219494;28;20657;-73
2023/04/05 13:46:29;;;;;;;9.25;7.20;;;;;;;10.22;84.00;102094.78;10210133;28;20084;-73
2023/04/05 13:51:30;;;;;;;8.73;7.25;;;;;;;9.73;83.60;102093.63;10224584;28;20042;-73
2023/04/05 13:56:26;;;;;;;10.85;7.72;;;;;;;9.23;90.89;102085.25;10217300;28;20495;-73
2023/04/05 14:01:23;;;;;;;8.68;7.00;;;;;;;9.01;95.00;102076.56;10207313;28;20557;-73
2023/04/05 14:06:20;;;;;;;7.65;6.72;;;;;;;8.74;96.09;102076.84;10223995;28;20458;-73
2023/04/05 14:11:16;;;;;;;7.85;7.05;;;;;;;8.38;96.13;102079.50;10213227;28;20090;-73
2023/04/05 14:16:13;;;;;;;8.63;7.05;;;;;;;8.34;98.11;102078.41;10210977;28;20096;-72
2023/04/05 14:21:09;;;;;;;7.85;7.07;;;;;;;8.10;100.00;102069.88;10224128;28;20064;-73
2023/04/05 14:26:06;;;;;;;8.10;7.25;;;;;;;8.19;100.00;102071.81;10209926;28;20045;-72
2023/04/05 14:31:03;;;;;;;8.40;7.10;;;;;;;8.11;100.00;102074.25;10223099;28;20511;-72
2023/04/05 14:35:59;;;;;;;7.40;6.68;;;;;;;8.35;100.00;102071.84;10215272;28;20053;-73
2023/04/05 14:40:56;;;;;;;7.60;6.78;;;;;;;8.67;97.50;102059.94;10219008;28;20041;-73
2023/04/05 14:45:52;;;;;;;7.55;6.78;;;;;;;8.71;95.27;102055.56;10221057;28;20053;-73
2023/04/05 14:50:49;;;;;;;9.27;6.25;;;;;;;9.11;96.68;102048.44;10223073;28;20046;-72
2023/04/05 14:55:46;;;;;;;8.40;7.55;;;;;;;9.22;93.92;102045.41;10223926;28;20045;-74
2023/04/05 15:00:44;;;;;;;7.90;7.20;;;;;;;9.97;91.43;102043.78;10213968;28;20384;-72
2023/04/05 15:05:40;;;;;;;8.20;7.40;;;;;;;9.79;90.22;102043.31;10219217;28;20095;-71
2023/04/05 15:10:38;;;;;;;8.73;7.45;;;;;;;9.41;87.74;102036.66;10219915;28;20486;-73
2023/04/05 15:15:35;;;;;;;8.07;7.32;;;;;;;9.39;93.54;102038.84;10217304;28;20041;-72
2023/04/05 15:20:34;;;;;;;7.75;6.45;;;;;;;8.91;93.56;102039.22;10211858;28;20116;-73
2023/04/05 15:25:30;;;;;;;7.57;6.88;;;;;;;8.66;97.58;102037.31;10230086;28;20072;-73
2023/04/05 15:30:27;;;;;;;6.82;6.22;;;;;;;8.62;95.69;102037.03;10214672;28;20112;-73
2023/04/05 15:35:24;;;;;;;7.22;6.53;;;;;;;8.52;96.28;102036.22;10208709;28;20142;-73
2023/04/05 15:40:21;;;;;;;9.40;6.18;;;;;;;8.39;97.93;102032.88;10211269;28;20041;-73
2023/04/05 15:45:17;;;;;;;6.63;6.03;;;;;;;8.37;96.54;102028.78;10223290;28;20554;-73
2023/04/05 15:50:14;;;;;;;6.80;6.10;;;;;;;8.46;92.45;102010.84;10210752;28;20579;-73
2023/04/05 15:55:11;;;;;;;6.57;5.88;;;;;;;8.58;96.12;102008.66;10218699;28;20045;-74
2023/04/05 16:00:08;;;;;;;6.90;5.45;;;;;;;8.24;92.98;102011.06;10211158;28;20625;-73
2023/04/05 16:05:04;;;;;;;7.10;5.90;;;;;;;8.27;94.27;102007.00;10214453;28;20053;-73
2023/04/05 16:10:02;;;;;;;9.35;6.38;;;;;;;8.22;97.70;102005.88;10219828;28;20049;-72
2023/04/05 16:14:58;;;;;;;8.30;5.85;;;;;;;7.93;100.00;102004.72;10222989;28;20123;-73
2023/04/05 16:19:55;;;;;;;9.30;5.97;;;;;;;7.99;100.00;102000.94;10212344;28;20519;-73
2023/04/05 16:24:52;;;;;;;9.27;6.10;;;;;;;7.90;100.00;101997.09;10205917;28;20057;-71
2023/04/05 16:29:49;;;;;;;7.03;5.43;;;;;;;7.94;100.00;102004.47;10214541;28;20422;-72
2023/04/05 16:34:45;;;;;;;7.03;5.07;;;;;;;7.93;100.00;101991.13;10224598;28;20522;-73
2023/04/05 16:39:42;;;;;;;6.93;5.38;;;;;;;7.87;100.00;101992.22;10220145;28;20562;-73
2023/04/05 16:44:38;;;;;;;5.70;5.10;;;;;;;7.93;100.00;101985.66;10220178;28;20136;-73
2023/04/05 16:49:35;;;;;;;7.25;5.25;;;;;;;8.02;100.00;101981.34;10210494;28;20503;-71
2023/04/05 16:54:33;;;;;;;7.18;5.05;;;;;;;7.91;100.00;101976.94;10218005;28;20042;-71
2023/04/05 16:59:29;;;;;;;7.07;5.53;;;;;;;7.80;100.00;101979.66;10215170;28;20148;-71
2023/04/05 17:04:27;;;;;;;6.72;6.00;;;;;;;8.53;100.00;101977.88;10219466;28;20144;-72
2023/04/05 17:09:27;;;;;;;6.90;6.20;;;;;;;8.35;100.00;101979.19;10225832;28;20391;-72
2023/04/05 17:14:24;;;;;;;10.80;7.05;;;;;;;7.98;100.00;101977.50;10229074;28;20388;-71
2023/04/05 17:19:22;;;;;;;6.32;5.72;;;;;;;7.97;100.00;101986.78;10217259;28;20077;-72
2023/04/05 17:24:18;;;;;;;5.85;5.25;;;;;;;8.04;100.00;101987.31;10206641;28;20500;-71
2023/04/05 17:29:16;;;;;;;5.55;4.90;;;;;;;7.79;100.00;101991.63;10217601;28;20063;-72
2023/04/05 17:34:13;;;;;;;5.28;4.68;;;;;;;7.67;100.00;101982.88;10221002;28;20576;-72
2023/04/05 17:39:10;;;;;;;5.13;4.65;;;;;;;7.74;100.00;101983.44;10224556;28;20037;-72
2023/04/05 17:44:07;;;;;;;7.30;5.00;;;;;;;7.65;100.00;101986.94;10219996;28;20042;-72
2023/04/05 17:49:03;;;;;;;4.82;4.43;;;;;;;7.52;100.00;101990.97;10225149;28;20067;-72
2023/04/05 17:54:00;;;;;;;5.72;4.95;;;;;;;7.40;100.00;101988.47;10231612;28;20042;-72
2023/04/05 17:58:56;;;;;;;5.75;5.18;;;;;;;7.23;100.00;101999.56;10224371;28;20041;-72
2023/04/05 18:03:53;;;;;;;7.43;4.75;;;;;;;7.12;100.00;101997.84;10226545;28;20760;-71
2023/04/05 18:08:50;;;;;;;5.57;5.07;;;;;;;6.93;100.00;102006.44;10225402;28;20145;-72
2023/04/05 18:13:46;;;;;;;6.53;4.80;;;;;;;6.77;100.00;102007.41;10225416;28;20057;-72
2023/04/05 18:18:43;;;;;;;5.82;5.00;;;;;;;6.69;100.00;102010.63;10228015;28;20050;-72
2023/04/05 18:23:39;;;;;;;12.00;6.20;;;;;;;6.63;100.00;102011.66;10226855;28;20478;-67
2023/04/05 18:28:36;;;;;;;7.15;5.25;;;;;;;6.56;100.00;102009.16;10221009;28;20048;-67
2023/04/05 18:33:32;;;;;;;6.28;4.47;;;;;;;6.55;100.00;102009.44;10216476;28;20046;-67
2023/04/05 18:38:29;;;;;;;5.97;4.95;;;;;;;6.49;100.00;102017.50;10223298;28;20073;-67
2023/04/05 18:43:25;;;;;;;8.05;4.82;;;;;;;6.49;100.00;102016.69;10226374;28;20079;-67
2023/04/05 18:48:23;;;;;;;7.60;4.90;;;;;;;6.43;100.00;102024.00;10219813;28;20538;-67
2023/04/05 18:53:21;;;;;;;6.20;5.00;;;;;;;6.50;100.00;102026.50;10209947;28;20042;-68
2023/04/05 18:58:18;;;;;;;7.20;4.63;;;;;;;6.42;100.00;102025.06;10216879;28;20049;-67
2023/04/05 19:03:15;;;;;;;5.53;4.63;;;;;;;6.27;100.00;102035.81;10223343;28;20561;-67
2023/04/05 19:08:13;;;;;;;6.85;4.82;;;;;;;6.15;100.00;102043.25;10228636;28;20044;-67
2023/04/05 19:13:09;;;;;;;6.72;5.38;;;;;;;5.91;100.00;102041.63;10221023;28;20420;-67
2023/04/05 19:18:05;;;;;;;6.57;4.75;;;;;;;5.69;100.00;102047.06;10211778;28;20574;-68
2023/04/05 19:23:02;;;;;;;6.20;5.15;;;;;;;5.43;100.00;102045.91;10218627;28;20166;-67
2023/04/05 19:27:58;;;;;;;6.30;5.05;;;;;;;5.30;100.00;102050.88;10216299;28;20121;-68
2023/04/05 19:32:55;;;;;;;6.78;5.00;;;;;;;5.14;100.00;102060.69;10227463;28;20041;-68
2023/04/05 19:37:52;;;;;;;5.55;4.88;;;;;;;4.95;100.00;102058.22;10213086;28;20046;-68
2023/04/05 19:42:48;;;;;;;6.22;5.05;;;;;;;4.74;100.00;102062.50;10216510;28;20144;-68
2023/04/05 19:47:47;;;;;;;7.65;5.45;;;;;;;4.55;100.00;102052.94;10212863;28;20133;-68
2023/04/05 19:52:47;;;;;;;5.90;5.30;;;;;;;4.35;100.00;102056.94;10219660;28;20060;-68
2023/04/05 19:57:43;;;;;;;6.63;5.18;;;;;;;4.24;100.00;102051.59;10226145;28;20470;-68
2023/04/05 20:02:40;;;;;;;8.88;5.53;;;;;;;4.13;100.00;102050.56;10208995;28;20045;-68
2023/04/05 20:07:37;;;;;;;8.23;5.40;;;;;;;4.00;100.00;102047.09;10216880;28;20057;-68
2023/04/05 20:12:33;;;;;;;7.35;5.70;;;;;;;3.93;100.00;102041.00;10218733;28;20068;-72
2023/04/05 20:17:30;;;;;;;10.52;6.32;;;;;;;3.84;100.00;102042.44;10227787;28;20040;-74
2023/04/05 20:22:27;;;;;;;7.25;5.10;;;;;;;3.74;100.00;102039.53;10217180;28;20045;-73
2023/04/05 20:27:24;;;;;;;7.18;5.30;;;;;;;3.62;100.00;102038.72;10219780;28;20037;-74
2023/04/05 20:32:23;;;;;;;10.70;5.00;;;;;;;3.53;100.00;102036.41;10222364;28;20041;-73
2023/04/05 20:37:20;;;;;;;9.80;5.50;;;;;;;3.46;100.00;102030.31;10221576;28;20519;-74
2023/04/05 20:42:16;;;;;;;7.20;5.40;;;;;;;3.38;100.00;102034.19;10217900;28;20630;-73
2023/04/05 20:52:28;;;;;;;7.63;5.95;;;;;;;3.27;100.00;102026.94;10219934;23;20042;-71
2023/04/05 20:57:25;;;;;;;8.68;5.85;;;;;;;3.24;100.00;102023.88;10184440;28;20050;-72
2023/04/05 21:02:21;;;;;;;7.43;5.65;;;;;;;3.21;100.00;102021.66;10187450;28;20129;-71
2023/04/05 21:07:18;;;;;;;8.63;5.78;;;;;;;3.18;100.00;102012.13;10187191;28;20092;-71
2023/04/05 21:12:14;;;;;;;11.52;7.15;;;;;;;3.13;100.00;102010.13;10185935;28;20128;-73
2023/04/05 21:17:11;;;;;;;10.75;7.35;;;;;;;3.14;100.00;102005.56;10189911;28;20054;-73
2023/04/05 21:22:07;;;;;;;9.18;6.57;;;;;;;3.08;100.00;102001.91;10195781;28;20041;-73
2023/04/05 21:27:04;;;;;;;9.18;5.97;;;;;;;3.03;100.00;101999.09;10193353;28;20040;-73
2023/04/05 21:32:00;;;;;;;8.57;6.25;;;;;;;2.96;100.00;101998.38;10190648;28;20076;-72
2023/04/05 21:36:56;;;;;;;9.98;6.32;;;;;;;2.90;100.00;101993.91;10192074;28;20120;-73
2023/04/05 21:41:53;;;;;;;10.23;6.75;;;;;;;2.82;100.00;101997.78;10195505;28;20074;-73
2023/04/05 21:46:49;;;;;;;11.98;7.35;;;;;;;2.80;100.00;102004.50;10195628;28;20456;-71
2023/04/05 21:51:46;;;;;;;11.05;7.15;;;;;;;2.74;100.00;101998.97;10199893;28;20046;-74
2023/04/05 21:56:42;;;;;;;11.15;6.78;;;;;;;2.73;100.00;101988.41;10192655;28;20061;-72
2023/04/05 22:01:39;;;;;;;15.65;7.57;;;;;;;2.66;100.00;101996.59;10190632;28;20050;-73
2023/04/05 22:06:35;;;;;;;19.20;9.43;;;;;;;2.62;100.00;101987.34;10193226;28;20092;-73
2023/04/05 22:11:32;;;;;;;21.83;9.40;;;;;;;2.60;100.00;101985.91;10189131;28;20685;-73
2023/04/05 22:16:31;;;;;;;20.95;10.48;;;;;;;2.58;100.00;101986.16;10204686;28;20648;-69
2023/04/05 22:21:27;;;;;;;18.13;8.23;;;;;;;2.55;100.00;101983.09;10194912;28;20132;-69
2023/04/05 22:26:24;;;;;;;19.05;8.23;;;;;;;2.46;100.00;101979.91;10193094;28;20030;-70
2023/04/05 22:31:21;;;;;;;22.27;10.25;;;;;;;2.38;100.00;101982.97;10192820;28;20415;-71
2023/04/05 22:36:17;;;;;;;17.50;9.13;;;;;;;2.25;100.00;101987.50;10188341;28;20074;-71
2023/04/05 22:41:14;;;;;;;18.23;8.85;;;;;;;2.24;100.00;101985.03;10190250;28;20125;-71